Time;durP1;ratioP1;P1;durP2;ratioP2;P2;SDS_P1;SDS_P2;PMS_P1;PMS_P2;Temp;Humidity;BMP_temperature;BMP_pressure;BME280_temperature;BME280_humidity;BME280_pressure;Samples;Min_cycle;Max_cycle;Signal;HPM_P1;HPM_P2
2021/10/14 00:01:02;;;;;;;11.70;7.60;;;;;;;8.46;54.08;94069.19;5008520;28;20054;-73
2021/10/14 00:03:28;;;;;;;16.30;9.52;;;;;;;8.49;54.19;94071.28;5010905;28;20071;-72
2021/10/14 00:05:53;;;;;;;11.95;7.63;;;;;;;8.66;54.09;94075.22;5011331;28;20060;-71
2021/10/14 00:08:19;;;;;;;14.07;8.68;;;;;;;8.53;54.04;94066.16;5010168;28;20049;-72
2021/10/14 00:10:44;;;;;;;14.45;8.73;;;;;;;8.47;54.61;94069.97;5011171;28;22767;-71
2021/10/14 00:13:10;;;;;;;15.57;8.80;;;;;;;8.43;54.43;94048.59;5008216;28;20079;-71
2021/10/14 00:15:35;;;;;;;12.85;8.30;;;;;;;8.46;54.87;94065.78;5011020;28;20421;-71
2021/10/14 00:18:01;;;;;;;13.82;7.78;;;;;;;8.48;54.80;94060.97;5008265;28;20543;-71
2021/10/14 00:20:27;;;;;;;15.30;8.00;;;;;;;8.49;54.35;94044.78;5003898;28;20064;-72
2021/10/14 00:22:53;;;;;;;18.30;8.90;;;;;;;8.44;54.94;94058.13;5010876;28;20033;-70
2021/10/14 00:25:19;;;;;;;15.75;8.75;;;;;;;8.56;54.49;94058.41;5004481;28;20413;-70
2021/10/14 00:27:46;;;;;;;12.68;8.23;;;;;;;8.70;54.33;94076.22;4996996;28;20095;-71
2021/10/14 00:30:12;;;;;;;15.60;8.95;;;;;;;8.53;54.96;94056.34;5007209;28;20034;-70
2021/10/14 00:32:37;;;;;;;14.75;8.40;;;;;;;8.39;55.67;94071.47;5014301;28;20478;-71
2021/10/14 00:35:03;;;;;;;13.52;8.63;;;;;;;8.40;55.32;94057.13;5004193;28;20633;-71
2021/10/14 00:37:29;;;;;;;15.18;9.13;;;;;;;8.55;55.18;94080.72;5008411;28;20037;-72
2021/10/14 00:39:54;;;;;;;12.70;8.93;;;;;;;8.70;55.29;94076.22;5012434;28;20037;-70
2021/10/14 00:42:19;;;;;;;10.48;8.13;;;;;;;8.72;55.09;94074.81;5007979;28;20041;-71
2021/10/14 00:44:47;;;;;;;14.75;8.65;;;;;;;8.71;55.01;94065.28;5002423;28;20188;-71
2021/10/14 00:47:18;;;;;;;13.70;8.93;;;;;;;8.69;55.27;94050.75;5010005;28;20611;-72
2021/10/14 00:49:43;;;;;;;16.30;8.90;;;;;;;8.81;54.80;94062.44;5011118;28;20025;-71
2021/10/14 00:52:08;;;;;;;14.02;8.95;;;;;;;8.80;54.94;94054.78;5015644;28;20499;-71
2021/10/14 00:54:34;;;;;;;14.75;8.60;;;;;;;8.85;54.88;94063.41;5006004;28;20050;-71
2021/10/14 00:56:59;;;;;;;18.77;10.30;;;;;;;8.75;55.51;94058.34;5003094;28;20542;-73
2021/10/14 00:59:26;;;;;;;13.02;8.32;;;;;;;8.79;54.71;94058.53;5011890;28;20124;-73
2021/10/14 01:01:51;;;;;;;14.70;9.65;;;;;;;8.76;55.19;94072.34;5015214;28;20538;-74
2021/10/14 01:04:17;;;;;;;14.13;9.07;;;;;;;8.81;55.49;94069.59;5012547;28;20018;-71
2021/10/14 01:06:42;;;;;;;12.73;8.50;;;;;;;8.91;54.97;94070.19;5009172;28;20083;-71
2021/10/14 01:09:07;;;;;;;18.25;9.55;;;;;;;8.92;54.92;94068.34;5016616;28;20046;-73
2021/10/14 01:11:33;;;;;;;12.50;8.50;;;;;;;8.93;55.15;94080.53;5009601;28;20404;-70
2021/10/14 01:13:58;;;;;;;17.67;9.38;;;;;;;8.66;55.91;94080.53;5010831;28;20176;-72
2021/10/14 01:16:24;;;;;;;12.20;8.38;;;;;;;8.47;57.03;94085.88;5008370;28;20032;-72
2021/10/14 01:18:49;;;;;;;19.40;9.73;;;;;;;8.39;56.83;94081.28;5002346;28;20322;-71
2021/10/14 01:21:15;;;;;;;17.63;10.02;;;;;;;8.42;57.42;94070.88;5016780;28;20133;-71
2021/10/14 01:23:40;;;;;;;17.40;10.13;;;;;;;8.56;56.68;94054.97;5006524;28;20069;-70
2021/10/14 01:26:06;;;;;;;15.30;9.23;;;;;;;8.64;56.40;94075.50;5016799;28;20049;-71
2021/10/14 01:28:32;;;;;;;13.82;8.90;;;;;;;8.44;56.57;94062.63;5008475;28;20121;-71
2021/10/14 01:30:58;;;;;;;13.27;8.43;;;;;;;8.42;56.85;94078.81;5012975;28;20577;-71
2021/10/14 01:33:25;;;;;;;14.80;9.48;;;;;;;8.42;57.40;94060.25;5006895;28;20053;-71
2021/10/14 01:35:50;;;;;;;12.80;8.85;;;;;;;8.31;57.34;94032.41;5005252;28;20630;-71
2021/10/14 01:38:17;;;;;;;12.45;8.15;;;;;;;8.64;56.49;94080.03;5006647;28;20045;-71
2021/10/14 01:40:43;;;;;;;14.63;8.85;;;;;;;8.49;57.22;94060.69;5011876;28;20124;-70
2021/10/14 01:43:15;;;;;;;12.95;8.43;;;;;;;8.63;57.00;94065.19;5014890;28;20431;-71
2021/10/14 01:45:41;;;;;;;16.00;9.40;;;;;;;8.63;57.59;94073.16;5009146;28;20041;-71
2021/10/14 01:48:07;;;;;;;15.90;9.63;;;;;;;8.64;57.78;94066.78;5013464;28;20396;-71
2021/10/14 01:50:32;;;;;;;13.35;7.90;;;;;;;8.51;57.43;94053.19;5011562;28;20581;-72
2021/10/14 01:52:58;;;;;;;11.88;8.05;;;;;;;8.33;57.61;94054.06;5012960;28;20037;-71
2021/10/14 01:55:23;;;;;;;15.63;10.10;;;;;;;8.39;58.37;94075.97;5014867;28;20369;-71
2021/10/14 01:57:49;;;;;;;14.18;8.48;;;;;;;8.41;58.13;94074.59;5009020;28;20491;-71
2021/10/14 02:00:14;;;;;;;13.00;8.95;;;;;;;8.42;58.22;94081.47;5014371;28;20120;-71
2021/10/14 02:02:39;;;;;;;15.70;8.60;;;;;;;8.43;58.41;94080.41;5014665;28;20851;-70
2021/10/14 02:05:06;;;;;;;21.40;8.90;;;;;;;8.38;58.33;94079.69;5011788;28;20046;-71
2021/10/14 02:07:32;;;;;;;11.05;8.13;;;;;;;7.83;58.33;94015.22;5013100;28;20025;-70
2021/10/14 02:09:57;;;;;;;14.30;9.13;;;;;;;8.37;58.68;94083.41;5012297;28;20404;-71
2021/10/14 02:12:23;;;;;;;15.02;8.52;;;;;;;8.34;58.74;94068.91;5015006;28;20069;-71
2021/10/14 02:14:48;;;;;;;12.43;8.02;;;;;;;8.50;58.62;94094.06;4998698;28;20038;-72
2021/10/14 02:17:13;;;;;;;14.55;8.55;;;;;;;8.58;58.67;94090.72;5012617;28;20033;-72
2021/10/14 02:19:39;;;;;;;14.27;8.45;;;;;;;8.59;58.44;94092.31;5012891;28;20025;-71
2021/10/14 02:22:04;;;;;;;12.18;8.68;;;;;;;8.64;58.22;94093.28;5012386;28;20102;-71
2021/10/14 02:24:30;;;;;;;12.98;8.32;;;;;;;8.54;58.18;94081.78;5010311;28;20125;-70
2021/10/14 02:26:55;;;;;;;15.43;9.48;;;;;;;8.56;58.17;94086.78;5011923;28;20041;-71
2021/10/14 02:29:21;;;;;;;13.40;7.82;;;;;;;8.42;58.06;94076.16;5014350;28;20571;-70
2021/10/14 02:31:46;;;;;;;15.45;9.07;;;;;;;8.50;58.64;94104.66;5010130;28;20142;-70
2021/10/14 02:34:11;;;;;;;15.65;8.77;;;;;;;8.45;58.71;94088.06;5014425;28;20745;-71
2021/10/14 02:36:37;;;;;;;15.95;9.13;;;;;;;8.48;57.90;94098.06;5009326;28;20037;-71
2021/10/14 02:39:04;;;;;;;15.35;8.90;;;;;;;8.55;58.38;94107.22;5013443;28;20049;-70
2021/10/14 02:41:29;;;;;;;22.23;9.35;;;;;;;8.55;58.10;94093.97;5013848;28;20041;-70
2021/10/14 02:43:55;;;;;;;15.45;9.23;;;;;;;8.70;58.15;94105.38;5011082;28;20418;-71
2021/10/14 02:46:20;;;;;;;15.35;8.35;;;;;;;8.68;58.32;94110.97;5015424;28;20021;-71
2021/10/14 02:48:46;;;;;;;20.40;9.68;;;;;;;8.70;58.35;94113.31;5007325;28;20034;-71
2021/10/14 02:51:11;;;;;;;20.45;9.93;;;;;;;8.75;58.54;94111.38;5014055;28;20522;-70
2021/10/14 02:53:36;;;;;;;17.65;9.23;;;;;;;8.70;57.63;94086.81;5009803;28;20037;-71
2021/10/14 02:56:02;;;;;;;49.85;18.45;;;;;;;8.90;57.54;94112.94;5009271;28;20052;-71
2021/10/14 02:58:27;;;;;;;16.30;9.20;;;;;;;9.01;57.12;94111.66;5011104;28;21182;-71
2021/10/14 03:00:52;;;;;;;16.35;8.68;;;;;;;8.76;56.68;94069.69;5010286;28;20551;-70
2021/10/14 03:03:18;;;;;;;16.30;8.75;;;;;;;8.95;57.03;94123.47;5013500;28;20033;-71
2021/10/14 03:05:43;;;;;;;13.93;8.13;;;;;;;8.84;57.31;94119.44;5008608;28;20122;-70
2021/10/14 03:08:09;;;;;;;16.02;8.45;;;;;;;8.58;57.85;94127.06;5010871;28;20045;-71
2021/10/14 03:10:34;;;;;;;17.52;9.55;;;;;;;8.40;58.55;94112.00;5013598;28;20040;-72
2021/10/14 03:12:59;;;;;;;15.85;8.43;;;;;;;8.56;58.79;94126.53;5009848;28;20037;-70
2021/10/14 03:15:25;;;;;;;22.15;9.07;;;;;;;8.49;58.31;94116.34;5007757;28;20399;-73
2021/10/14 03:17:50;;;;;;;18.52;9.65;;;;;;;8.67;58.32;94125.28;5008888;28;20041;-71
2021/10/14 03:20:16;;;;;;;21.15;9.98;;;;;;;8.78;58.41;94134.66;5006942;28;20037;-71
2021/10/14 03:22:41;;;;;;;12.43;8.27;;;;;;;8.74;58.98;94128.34;5009010;28;20033;-71
2021/10/14 03:25:07;;;;;;;12.95;6.82;;;;;;;8.82;58.02;94117.06;5013271;28;20448;-70
2021/10/14 03:27:33;;;;;;;12.07;7.90;;;;;;;8.96;56.82;94131.09;5010574;28;20037;-71
2021/10/14 03:29:58;;;;;;;10.48;7.25;;;;;;;8.94;57.16;94119.22;5010037;28;20349;-73
2021/10/14 03:32:24;;;;;;;11.02;6.65;;;;;;;8.92;56.71;94124.03;5010115;28;20385;-71
2021/10/14 03:34:49;;;;;;;12.68;7.82;;;;;;;8.90;56.61;94112.94;5010646;28;20029;-71
2021/10/14 03:37:15;;;;;;;29.60;11.63;;;;;;;9.05;56.51;94119.81;5008570;28;20021;-71
2021/10/14 03:39:41;;;;;;;21.60;9.88;;;;;;;9.10;56.57;94117.03;5009677;28;20064;-71
2021/10/14 03:42:06;;;;;;;19.40;8.32;;;;;;;9.22;56.81;94120.81;5011956;28;20431;-71
2021/10/14 03:44:31;;;;;;;14.18;7.25;;;;;;;9.25;55.82;94117.56;5012914;28;20069;-71
2021/10/14 03:46:57;;;;;;;19.92;9.13;;;;;;;9.22;56.08;94104.91;5007570;28;20300;-72
2021/10/14 03:49:22;;;;;;;12.70;6.75;;;;;;;9.23;55.86;94121.59;5012265;28;20492;-71
2021/10/14 03:51:48;;;;;;;12.15;7.22;;;;;;;8.80;56.80;94076.00;5010872;28;20033;-72
2021/10/14 03:54:13;;;;;;;9.13;5.90;;;;;;;9.00;56.96;94108.22;5008235;28;20104;-70
2021/10/14 03:56:38;;;;;;;9.65;5.18;;;;;;;9.04;57.40;94134.97;5008912;28;20069;-71
2021/10/14 03:59:04;;;;;;;15.00;9.15;;;;;;;8.97;57.52;94123.94;5011000;28;20041;-71
2021/10/14 04:01:29;;;;;;;13.57;8.73;;;;;;;8.92;57.50;94121.38;5009011;28;20531;-72
2021/10/14 04:03:55;;;;;;;14.65;8.13;;;;;;;8.99;57.19;94137.72;5008956;28;20452;-73
2021/10/14 04:06:20;;;;;;;10.88;6.88;;;;;;;9.01;56.77;94132.88;5004712;28;20084;-71
2021/10/14 04:08:46;;;;;;;9.93;6.50;;;;;;;9.07;56.46;94126.41;5008849;28;20508;-71
2021/10/14 04:11:11;;;;;;;11.32;6.93;;;;;;;9.00;56.50;94128.66;5011372;28;20582;-71
2021/10/14 04:13:37;;;;;;;13.55;8.68;;;;;;;8.94;56.23;94141.25;5015264;28;20029;-71
2021/10/14 04:16:02;;;;;;;18.92;9.27;;;;;;;8.72;56.90;94127.06;5017174;28;20044;-71
2021/10/14 04:18:27;;;;;;;16.70;8.43;;;;;;;8.85;57.14;94142.22;5013306;28;20038;-71
2021/10/14 04:20:53;;;;;;;15.40;9.23;;;;;;;8.84;57.71;94140.66;5010622;28;20393;-71
2021/10/14 04:23:20;;;;;;;12.98;7.93;;;;;;;8.82;58.02;94143.56;5016630;28;20116;-72
2021/10/14 04:25:45;;;;;;;14.57;8.82;;;;;;;8.94;57.89;94145.75;5012590;28;20523;-71
2021/10/14 04:28:11;;;;;;;11.27;7.05;;;;;;;8.87;57.94;94135.53;5017395;28;20044;-71
2021/10/14 04:30:37;;;;;;;19.60;10.60;;;;;;;8.85;57.53;94132.38;5012706;28;20125;-71
2021/10/14 04:33:03;;;;;;;20.67;11.57;;;;;;;8.87;57.75;94140.03;5016429;28;20034;-70
2021/10/14 04:35:28;;;;;;;12.63;9.35;;;;;;;8.86;57.82;94143.78;5010403;28;20033;-70
2021/10/14 04:37:54;;;;;;;13.07;8.68;;;;;;;8.73;58.25;94133.94;5015447;28;20414;-72
2021/10/14 04:40:19;;;;;;;21.70;11.57;;;;;;;8.85;58.14;94142.97;5017427;28;20029;-71
2021/10/14 04:42:45;;;;;;;15.52;8.10;;;;;;;8.81;57.98;94146.50;5016092;28;20053;-71
2021/10/14 04:45:10;;;;;;;17.83;9.75;;;;;;;8.87;57.83;94155.97;5013414;28;20788;-70
2021/10/14 04:47:36;;;;;;;18.13;9.38;;;;;;;8.78;57.99;94153.22;5012168;28;20049;-72
2021/10/14 04:50:04;;;;;;;19.52;9.05;;;;;;;8.78;58.82;94157.72;5015840;28;20045;-71
2021/10/14 04:52:30;;;;;;;14.20;7.55;;;;;;;8.77;58.37;94145.53;5015219;28;20155;-71
2021/10/14 04:54:55;;;;;;;9.75;6.10;;;;;;;8.88;57.54;94162.84;5014312;28;20184;-71
2021/10/14 04:57:20;;;;;;;8.48;4.60;;;;;;;8.81;57.04;94165.06;5015527;28;20037;-71
2021/10/14 04:59:46;;;;;;;9.07;4.97;;;;;;;8.64;57.08;94144.44;5013950;28;20041;-72
2021/10/14 05:02:11;;;;;;;8.02;5.25;;;;;;;8.77;56.40;94150.84;5015718;28;20037;-71
2021/10/14 05:04:37;;;;;;;8.65;5.55;;;;;;;8.77;56.55;94162.25;5013186;28;20032;-72
2021/10/14 05:07:02;;;;;;;6.15;4.55;;;;;;;8.78;56.58;94163.81;5015384;28;20017;-72
2021/10/14 05:09:27;;;;;;;8.77;4.55;;;;;;;8.72;56.54;94149.06;5011872;28;20547;-73
2021/10/14 05:11:53;;;;;;;4.97;3.42;;;;;;;8.98;53.56;94168.75;5012329;28;20049;-73
2021/10/14 05:14:19;;;;;;;5.00;3.50;;;;;;;8.89;55.56;94164.41;5015483;28;20326;-72
2021/10/14 05:16:45;;;;;;;6.20;3.70;;;;;;;8.93;55.04;94160.09;5012410;28;20045;-71
2021/10/14 05:19:10;;;;;;;5.15;3.55;;;;;;;8.98;55.25;94170.63;5012354;28;20030;-71
2021/10/14 05:21:35;;;;;;;5.68;4.13;;;;;;;8.93;55.40;94171.50;5012329;28;20147;-74
2021/10/14 05:24:01;;;;;;;6.15;3.97;;;;;;;8.91;55.75;94173.66;5014008;28;20575;-72
2021/10/14 05:26:28;;;;;;;5.07;3.92;;;;;;;8.82;56.10;94164.78;5014430;28;20029;-73
2021/10/14 05:28:55;;;;;;;6.18;3.30;;;;;;;8.77;55.18;94161.44;5011718;28;20368;-72
2021/10/14 05:31:21;;;;;;;6.20;3.22;;;;;;;8.56;53.76;94174.25;5016100;28;20437;-71
2021/10/14 05:33:46;;;;;;;10.43;4.53;;;;;;;8.41;55.54;94175.31;5011814;28;20042;-72
2021/10/14 05:36:12;;;;;;;6.07;3.85;;;;;;;8.40;56.24;94163.16;5014729;28;20124;-72
2021/10/14 05:38:37;;;;;;;7.38;3.70;;;;;;;8.35;56.47;94187.09;5012727;28;20077;-72
2021/10/14 05:41:02;;;;;;;4.82;3.10;;;;;;;8.37;57.25;94184.91;5010883;28;20057;-72
2021/10/14 05:43:28;;;;;;;6.50;4.03;;;;;;;8.33;57.24;94185.78;5007497;28;20060;-72
2021/10/14 05:45:54;;;;;;;5.00;3.20;;;;;;;8.35;57.35;94194.25;5014020;28;20049;-72
2021/10/14 05:48:19;;;;;;;5.45;3.15;;;;;;;8.28;56.60;94185.88;5004049;28;20045;-72
2021/10/14 05:50:44;;;;;;;5.05;3.10;;;;;;;8.24;56.37;94193.63;5011455;28;20454;-73
2021/10/14 05:53:10;;;;;;;6.47;3.50;;;;;;;8.25;57.29;94186.47;5014584;28;20044;-74
2021/10/14 05:55:36;;;;;;;6.30;3.97;;;;;;;8.16;56.98;94178.38;5012090;28;20037;-74
2021/10/14 05:58:01;;;;;;;5.07;3.28;;;;;;;8.28;55.78;94181.34;5013988;28;20017;-72
2021/10/14 06:00:26;;;;;;;4.80;2.90;;;;;;;8.29;54.73;94198.03;5006094;28;20534;-72
2021/10/14 06:02:52;;;;;;;5.68;3.17;;;;;;;7.91;56.31;94189.34;5012287;28;20053;-72
2021/10/14 06:05:17;;;;;;;4.78;3.15;;;;;;;7.73;59.07;94212.88;5015406;28;20079;-72
2021/10/14 06:07:43;;;;;;;5.28;3.90;;;;;;;7.88;58.75;94213.72;5009974;28;20065;-73
2021/10/14 06:10:08;;;;;;;4.05;2.75;;;;;;;7.92;57.59;94210.25;5015776;28;20029;-72
2021/10/14 06:12:34;;;;;;;3.72;2.47;;;;;;;7.90;58.39;94217.69;5010641;28;20053;-72
2021/10/14 06:14:59;;;;;;;3.88;2.40;;;;;;;8.09;56.71;94215.81;5011788;28;20120;-73
2021/10/14 06:17:24;;;;;;;5.30;2.72;;;;;;;8.13;56.71;94222.13;5012135;28;20038;-72
2021/10/14 06:19:50;;;;;;;5.55;5.03;;;;;;;7.78;57.81;94213.91;5001333;28;20607;-73
2021/10/14 06:22:15;;;;;;;4.43;2.88;;;;;;;8.05;58.07;94235.22;5012978;28;20099;-72
2021/10/14 06:24:40;;;;;;;3.42;2.53;;;;;;;8.11;56.21;94236.75;5004742;28;20041;-72
2021/10/14 06:27:06;;;;;;;4.70;2.97;;;;;;;7.86;59.46;94243.16;5013804;28;20037;-72
2021/10/14 06:29:32;;;;;;;3.53;2.40;;;;;;;7.69;59.03;94248.13;5008010;28;20049;-72
2021/10/14 06:31:58;;;;;;;5.70;3.60;;;;;;;7.79;58.16;94252.53;5007835;28;20908;-72
2021/10/14 06:34:23;;;;;;;6.25;3.72;;;;;;;7.57;56.80;94242.44;5011523;28;20033;-72
2021/10/14 06:36:48;;;;;;;3.47;2.28;;;;;;;8.01;56.70;94258.06;5013349;28;20033;-72
2021/10/14 06:39:14;;;;;;;3.83;2.42;;;;;;;7.94;58.68;94247.03;5005636;28;20029;-73
2021/10/14 06:41:39;;;;;;;2.90;2.03;;;;;;;8.07;56.06;94243.69;5009885;28;20397;-72
2021/10/14 06:44:07;;;;;;;3.25;2.40;;;;;;;8.22;55.96;94266.53;5006489;28;20587;-72
2021/10/14 06:46:36;;;;;;;3.22;2.30;;;;;;;8.20;57.40;94264.16;5013853;28;20585;-74
2021/10/14 06:49:01;;;;;;;4.43;2.88;;;;;;;8.27;56.90;94263.78;5008655;28;20088;-73
2021/10/14 06:51:27;;;;;;;3.70;2.95;;;;;;;8.11;57.90;94245.47;5007678;28;20039;-72
2021/10/14 06:53:52;;;;;;;5.15;3.50;;;;;;;8.36;57.41;94260.22;5009639;28;20045;-72
2021/10/14 06:56:17;;;;;;;3.47;2.30;;;;;;;8.52;55.87;94258.09;5010638;28;20053;-72
2021/10/14 06:58:43;;;;;;;3.00;1.95;;;;;;;8.40;55.55;94273.69;5010131;28;20464;-72
2021/10/14 07:01:08;;;;;;;3.42;1.80;;;;;;;8.33;55.50;94266.09;5011414;28;20033;-73
2021/10/14 07:03:33;;;;;;;2.38;1.67;;;;;;;8.25;56.20;94272.03;5007026;28;20628;-72
2021/10/14 07:05:59;;;;;;;1.70;1.35;;;;;;;8.08;55.17;94277.03;5013195;28;20037;-71
2021/10/14 07:08:24;;;;;;;1.60;1.48;;;;;;;7.92;54.15;94249.97;5006735;28;20045;-72
2021/10/14 07:10:50;;;;;;;2.72;1.45;;;;;;;7.81;54.04;94284.81;5006457;28;20462;-71
2021/10/14 07:13:16;;;;;;;2.55;2.10;;;;;;;7.41;56.79;94288.69;5011915;28;20087;-71
2021/10/14 07:15:41;;;;;;;3.70;1.63;;;;;;;7.28;56.78;94253.09;5011495;28;20037;-72
2021/10/14 07:18:08;;;;;;;6.20;3.22;;;;;;;7.30;58.15;94272.91;5010691;28;20037;-73
2021/10/14 07:20:35;;;;;;;5.43;3.72;;;;;;;7.36;58.25;94291.38;5001596;28;20561;-73
2021/10/14 07:23:08;;;;;;;3.22;2.33;;;;;;;6.84;58.06;94279.72;5018395;28;20455;-72
2021/10/14 07:25:34;;;;;;;5.28;2.20;;;;;;;7.50;57.44;94281.69;5002392;28;20709;-72
2021/10/14 07:27:59;;;;;;;5.60;4.18;;;;;;;7.37;58.52;94266.50;5008100;28;20374;-71
2021/10/14 07:30:25;;;;;;;4.35;3.05;;;;;;;7.22;59.43;94276.19;5001045;28;20519;-72
2021/10/14 07:32:50;;;;;;;3.42;1.92;;;;;;;7.52;58.23;94274.28;5011027;28;20848;-72
2021/10/14 07:35:20;;;;;;;4.63;3.40;;;;;;;7.18;58.80;94272.53;5005292;28;20044;-71
2021/10/14 07:37:45;;;;;;;2.80;2.15;;;;;;;7.40;57.50;94266.72;5007586;28;20030;-72
2021/10/14 07:40:11;;;;;;;3.28;1.77;;;;;;;7.73;56.23;94269.56;5010862;28;20538;-72
2021/10/14 07:42:36;;;;;;;1.42;1.30;;;;;;;7.37;55.74;94251.41;5008561;28;20478;-71
2021/10/14 07:45:02;;;;;;;3.03;1.95;;;;;;;7.31;57.16;94268.41;5011349;28;20585;-74
2021/10/14 07:47:27;;;;;;;2.78;1.65;;;;;;;7.40;56.60;94287.09;5008896;28;20065;-72
2021/10/14 07:49:53;;;;;;;2.90;1.75;;;;;;;7.29;57.25;94281.13;5016512;28;20074;-72
2021/10/14 07:52:18;;;;;;;3.15;1.90;;;;;;;7.37;56.88;94283.16;5012897;28;20429;-72
2021/10/14 07:54:44;;;;;;;3.65;1.30;;;;;;;7.38;56.02;94284.75;5013515;28;20480;-71
2021/10/14 07:57:10;;;;;;;1.75;1.42;;;;;;;7.08;55.54;94275.28;5014689;28;20060;-73
2021/10/14 07:59:35;;;;;;;2.40;1.20;;;;;;;6.75;57.14;94298.00;5016002;28;20033;-72
2021/10/14 08:02:00;;;;;;;1.25;1.08;;;;;;;6.47;56.15;94235.34;5012919;28;20831;-73
2021/10/14 08:04:26;;;;;;;1.85;1.75;;;;;;;6.30;57.31;94275.38;5014478;28;20025;-71
2021/10/14 08:06:51;;;;;;;2.72;1.80;;;;;;;6.16;58.46;94290.28;5014916;28;20152;-72
2021/10/14 08:09:17;;;;;;;2.00;1.60;;;;;;;6.49;58.42;94294.00;5008728;28;20131;-72
2021/10/14 08:11:42;;;;;;;4.75;1.83;;;;;;;6.59;59.24;94293.13;5009007;28;20057;-73
2021/10/14 08:14:07;;;;;;;3.17;1.83;;;;;;;6.52;57.70;94269.66;5011132;28;20144;-72
2021/10/14 08:16:33;;;;;;;1.02;1.02;;;;;;;6.57;57.75;94272.25;5013687;28;20029;-72
2021/10/14 08:18:58;;;;;;;1.00;1.00;;;;;;;6.57;56.80;94282.84;5009215;28;20033;-72
2021/10/14 08:21:24;;;;;;;1.13;1.02;;;;;;;6.54;57.25;94274.69;5012708;28;20381;-71
2021/10/14 08:23:49;;;;;;;3.83;2.70;;;;;;;6.18;59.73;94258.28;5014093;28;20029;-72
2021/10/14 08:26:15;;;;;;;2.88;1.95;;;;;;;6.28;59.99;94284.63;5016168;28;20141;-72
2021/10/14 08:28:40;;;;;;;2.97;2.03;;;;;;;6.58;60.01;94280.97;5012983;28;20036;-71
2021/10/14 08:31:06;;;;;;;1.55;1.45;;;;;;;6.91;57.03;94282.81;5013847;28;20036;-72
2021/10/14 08:33:31;;;;;;;1.70;1.00;;;;;;;7.07;56.19;94283.47;5010054;28;20030;-72
2021/10/14 08:35:56;;;;;;;1.20;1.10;;;;;;;7.15;55.59;94286.28;5011377;28;20392;-72
2021/10/14 08:38:22;;;;;;;1.00;0.95;;;;;;;7.09;55.68;94268.88;5012568;28;20060;-72
2021/10/14 08:40:51;;;;;;;1.58;1.17;;;;;;;7.10;55.88;94267.03;5014115;28;20029;-72
2021/10/14 08:43:18;;;;;;;3.28;1.90;;;;;;;7.21;55.99;94268.50;5009980;28;20029;-72
2021/10/14 08:45:46;;;;;;;4.15;2.15;;;;;;;7.29;55.60;94257.31;5012338;28;20034;-73
2021/10/14 08:48:12;;;;;;;1.20;1.10;;;;;;;7.30;53.84;94245.66;5010680;28;20033;-71
2021/10/14 08:50:42;;;;;;;1.60;1.50;;;;;;;7.35;54.34;94258.84;5009975;28;20457;-74
2021/10/14 08:53:08;;;;;;;2.40;1.90;;;;;;;7.23;54.39;94245.22;5011298;28;20670;-71
2021/10/14 08:55:37;;;;;;;2.88;1.42;;;;;;;7.28;56.34;94263.69;5013227;28;20038;-72
2021/10/14 08:58:07;;;;;;;2.35;1.77;;;;;;;7.17;56.19;94267.50;5009583;28;20465;-72
2021/10/14 09:00:34;;;;;;;1.98;1.52;;;;;;;6.86;56.30;94257.22;5013419;28;20192;-72
2021/10/14 09:03:11;;;;;;;32.78;16.60;;;;;;;7.09;56.36;94260.19;5016598;28;20366;-72
2021/10/14 09:05:46;;;;;;;4.63;3.15;;;;;;;7.36;55.46;94271.00;5000203;28;20115;-73
2021/10/14 09:08:11;;;;;;;1.98;1.58;;;;;;;7.37;54.06;94262.00;5013100;28;20061;-71
2021/10/14 09:10:37;;;;;;;1.65;1.00;;;;;;;7.33;53.55;94260.19;5013539;28;20827;-73
2021/10/14 09:13:13;;;;;;;1.65;1.17;;;;;;;7.21;54.04;94260.56;5011259;28;20028;-71
2021/10/14 09:15:39;;;;;;;1.63;1.10;;;;;;;6.95;54.99;94259.25;5015379;28;20124;-72
2021/10/14 09:18:04;;;;;;;1.20;1.10;;;;;;;6.66;55.07;94241.53;5013005;28;20276;-73
2021/10/14 09:20:34;;;;;;;1.50;1.27;;;;;;;6.58;55.97;94258.00;5015728;28;20061;-73
2021/10/14 09:23:09;;;;;;;1.63;1.13;;;;;;;6.37;56.58;94264.50;5013131;28;20500;-73
2021/10/14 09:25:52;;;;;;;1.30;1.20;;;;;;;6.38;56.88;94264.22;5013581;28;20029;-72
2021/10/14 09:28:21;;;;;;;1.23;1.13;;;;;;;6.30;56.93;94264.03;5011468;28;20512;-72
2021/10/14 09:31:07;;;;;;;2.25;1.48;;;;;;;6.33;56.30;94264.25;5013993;28;20053;-72
2021/10/14 09:33:35;;;;;;;;;;;;;;;6.32;56.75;94267.16;5012195;28;20072;-73
2021/10/14 09:36:11;;;;;;;1.35;1.00;;;;;;;6.32;56.88;94267.97;5013918;28;20298;-72
2021/10/14 09:38:37;;;;;;;2.45;1.33;;;;;;;6.38;56.75;94266.06;5012697;28;20065;-71
2021/10/14 09:41:05;;;;;;;1.13;1.02;;;;;;;6.38;56.08;94258.94;5011714;28;20141;-72
2021/10/14 09:43:31;;;;;;;1.60;0.98;;;;;;;6.25;56.57;94264.06;5012766;28;20430;-72
2021/10/14 09:45:56;;;;;;;2.22;1.00;;;;;;;6.49;55.88;94257.00;5009048;28;20248;-72
2021/10/14 09:48:22;;;;;;;1.65;1.17;;;;;;;6.72;56.25;94256.28;5014329;28;20506;-72
2021/10/14 09:50:50;;;;;;;17.15;6.28;;;;;;;6.72;55.68;94253.66;5013055;28;20041;-73
2021/10/14 09:53:17;;;;;;;6.38;2.67;;;;;;;6.88;55.54;94253.50;5008829;28;20484;-72
2021/10/14 09:55:44;;;;;;;3.05;1.58;;;;;;;6.76;55.40;94257.31;5003544;28;20048;-72
2021/10/14 09:58:10;;;;;;;1.10;1.00;;;;;;;6.66;54.33;94244.16;5010896;28;20443;-71
2021/10/14 10:00:37;;;;;;;2.53;1.88;;;;;;;6.75;54.64;94247.78;5009188;28;20486;-73
2021/10/14 10:03:04;;;;;;;1.83;1.15;;;;;;;7.11;53.30;94252.75;5011790;28;20049;-71
2021/10/14 10:05:31;;;;;;;1.65;1.52;;;;;;;6.74;54.76;94258.66;5010657;28;20341;-73
2021/10/14 10:07:59;;;;;;;1.95;1.52;;;;;;;6.39;55.62;94259.72;5008951;28;20133;-72
2021/10/14 10:10:27;;;;;;;2.67;1.67;;;;;;;6.41;55.61;94244.38;5005268;28;20044;-71
2021/10/14 10:12:56;;;;;;;5.72;4.05;;;;;;;6.61;55.49;94249.50;5002382;28;20563;-72
2021/10/14 10:15:42;;;;;;;2.03;1.50;;;;;;;6.91;55.20;94258.22;5007775;28;20522;-72
2021/10/14 10:18:26;;;;;;;2.10;1.55;;;;;;;6.99;54.29;94262.94;5006212;28;20520;-73
2021/10/14 10:20:52;;;;;;;7.30;4.60;;;;;;;6.90;55.15;94251.38;5007072;28;20104;-71
2021/10/14 10:23:42;;;;;;;3.63;1.95;;;;;;;6.90;55.34;94254.03;5006776;28;20368;-71
2021/10/14 10:26:33;;;;;;;2.65;1.60;;;;;;;6.92;54.91;94246.59;5012078;28;20500;-71
2021/10/14 10:29:21;;;;;;;1.80;1.50;;;;;;;7.00;55.02;94238.03;5012205;28;20053;-71
2021/10/14 10:31:49;;;;;;;3.03;2.15;;;;;;;7.00;54.80;94241.47;5004943;28;20037;-72
2021/10/14 10:37:14;;;;;;;7.18;5.90;;;;;;;6.95;54.66;94227.50;5006233;28;20152;-72
2021/10/14 10:39:56;;;;;;;3.00;2.47;;;;;;;6.92;55.11;94228.09;5005669;28;20041;-71
2021/10/14 10:42:38;;;;;;;6.32;4.38;;;;;;;7.02;55.14;94222.69;5011223;28;20056;-71
2021/10/14 10:45:06;;;;;;;1.65;1.40;;;;;;;7.27;53.87;94214.50;5012518;28;20095;-72
2021/10/14 10:47:38;;;;;;;2.83;2.00;;;;;;;7.28;53.78;94211.56;5004801;28;20511;-71
2021/10/14 10:50:05;;;;;;;2.55;1.92;;;;;;;7.18;54.37;94214.31;5009431;28;20643;-72
2021/10/14 10:52:32;;;;;;;4.40;1.67;;;;;;;7.14;54.04;94191.38;5004394;28;20112;-72
2021/10/14 10:55:02;;;;;;;1.60;1.15;;;;;;;7.40;53.38;94213.78;5007198;28;20500;-71
2021/10/14 10:57:51;;;;;;;1.45;1.10;;;;;;;7.36;53.54;94218.06;5004857;28;20562;-71
2021/10/14 11:00:18;;;;;;;1.90;1.80;;;;;;;7.18;53.81;94202.94;5006906;28;20037;-72
2021/10/14 11:02:44;;;;;;;2.45;2.00;;;;;;;7.39;53.31;94225.44;5006243;28;20120;-72
2021/10/14 11:05:10;;;;;;;1.35;1.25;;;;;;;7.39;52.75;94212.22;5007190;28;20144;-71
2021/10/14 11:07:35;;;;;;;1.67;1.58;;;;;;;7.23;53.31;94201.03;5005324;28;20321;-72
2021/10/14 11:10:02;;;;;;;1.98;1.50;;;;;;;7.32;53.19;94206.50;5001985;28;20496;-72
2021/10/14 11:12:27;;;;;;;4.22;2.42;;;;;;;7.34;52.95;94204.34;5007407;28;20225;-71
2021/10/14 11:14:53;;;;;;;2.25;1.80;;;;;;;7.43;52.99;94207.97;5001414;28;20033;-71
2021/10/14 11:17:18;;;;;;;2.58;1.65;;;;;;;7.36;53.43;94210.16;5003899;28;20211;-72
2021/10/14 11:19:45;;;;;;;2.13;1.52;;;;;;;7.31;53.43;94196.97;5008042;28;20120;-71
2021/10/14 11:22:19;;;;;;;4.50;2.00;;;;;;;7.17;53.64;94204.00;5005099;28;20535;-72
2021/10/14 11:24:47;;;;;;;1.90;1.30;;;;;;;7.10;53.51;94201.69;5007195;28;20941;-71
2021/10/14 11:27:17;;;;;;;1.75;1.48;;;;;;;7.11;53.98;94199.84;5005642;28;20041;-73
2021/10/14 11:29:44;;;;;;;1.67;1.58;;;;;;;7.08;53.47;94184.53;5005351;28;20419;-73
2021/10/14 11:32:17;;;;;;;1.48;1.30;;;;;;;7.10;54.11;94188.47;5016574;28;20044;-72
2021/10/14 11:34:42;;;;;;;2.40;1.60;;;;;;;7.16;53.71;94197.16;5011975;28;20038;-71
2021/10/14 11:37:13;;;;;;;1.95;1.63;;;;;;;7.00;53.75;94198.38;5009368;28;20025;-71
2021/10/14 11:39:39;;;;;;;1.45;1.35;;;;;;;6.82;54.45;94186.66;5008037;28;20049;-72